createdAt,value
2018-06-14T00:00:37.487Z,99.90
2018-06-14T00:03:05.135Z,99.90
2018-06-14T00:05:32.761Z,99.90
2018-06-14T00:08:00.315Z,99.90
2018-06-14T00:10:27.914Z,99.90
2018-06-14T00:12:55.465Z,99.90
2018-06-14T00:15:22.999Z,99.90
2018-06-14T00:17:50.555Z,99.90
2018-06-14T00:20:18.093Z,99.90
2018-06-14T00:22:45.663Z,99.90
2018-06-14T00:25:13.308Z,99.90
2018-06-14T00:27:40.852Z,99.90
2018-06-14T00:30:08.382Z,99.90
2018-06-14T00:32:35.950Z,99.90
2018-06-14T00:35:03.518Z,99.90
2018-06-14T00:37:31.032Z,99.90
2018-06-14T00:39:58.588Z,99.90
2018-06-14T00:42:26.103Z,99.90
2018-06-14T00:44:53.632Z,99.90
2018-06-14T00:47:21.174Z,99.90
2018-06-14T00:49:48.699Z,99.90
2018-06-14T00:52:16.232Z,99.90
2018-06-14T00:54:43.776Z,99.90
2018-06-14T00:57:23.046Z,99.90
2018-06-14T00:59:50.590Z,99.90
2018-06-14T01:02:18.130Z,99.90
2018-06-14T01:04:45.690Z,99.90
2018-06-14T01:07:13.221Z,99.90
2018-06-14T01:09:40.898Z,99.90
2018-06-14T01:12:08.471Z,99.90
2018-06-14T01:14:36.014Z,99.90
2018-06-14T01:17:03.590Z,99.90
2018-06-14T01:19:31.155Z,99.90
2018-06-14T01:21:58.695Z,99.90
2018-06-14T01:24:26.320Z,99.90
2018-06-14T01:26:54.729Z,99.90
2018-06-14T01:29:22.363Z,99.90
2018-06-14T01:31:49.895Z,99.90
2018-06-14T01:34:17.428Z,99.90
2018-06-14T01:36:44.929Z,99.90
2018-06-14T01:39:12.501Z,99.90
2018-06-14T01:41:40.072Z,99.90
2018-06-14T01:44:07.563Z,99.90
2018-06-14T01:46:35.069Z,99.90
2018-06-14T01:49:02.653Z,99.90
2018-06-14T01:51:30.249Z,99.90
2018-06-14T01:53:57.853Z,99.90
2018-06-14T01:56:25.449Z,99.90
2018-06-14T01:58:52.975Z,99.90
2018-06-14T02:01:20.513Z,99.90
2018-06-14T02:03:48.221Z,99.90
2018-06-14T02:06:15.758Z,99.90
2018-06-14T02:08:43.283Z,99.90
2018-06-14T02:11:10.854Z,99.90
2018-06-14T02:13:38.607Z,99.90
2018-06-14T02:16:08.113Z,99.90
2018-06-14T02:18:36.993Z,99.90
2018-06-14T02:21:04.563Z,99.90
2018-06-14T02:23:32.285Z,99.90
2018-06-14T02:25:59.965Z,99.90
2018-06-14T02:28:27.613Z,99.90
2018-06-14T02:30:55.267Z,99.90
2018-06-14T02:33:22.813Z,99.90
2018-06-14T02:35:50.550Z,99.90
2018-06-14T02:38:20.599Z,99.90
2018-06-14T02:40:48.136Z,99.90
2018-06-14T02:43:15.809Z,99.90
2018-06-14T02:45:43.638Z,99.90
2018-06-14T02:48:11.151Z,99.90
2018-06-14T02:50:38.732Z,99.90
2018-06-14T02:53:06.288Z,99.90
2018-06-14T02:55:33.859Z,99.90
2018-06-14T02:58:01.430Z,99.90
2018-06-14T03:00:29.027Z,99.90
2018-06-14T03:02:56.541Z,99.90
2018-06-14T03:05:24.147Z,99.90
2018-06-14T03:07:51.670Z,99.90
2018-06-14T03:10:19.197Z,99.90
2018-06-14T03:12:46.728Z,99.90
2018-06-14T03:15:14.297Z,99.90
2018-06-14T03:17:41.834Z,99.90
2018-06-14T03:20:09.374Z,99.90
2018-06-14T03:22:36.953Z,99.90
2018-06-14T03:25:04.608Z,99.90
2018-06-14T03:27:32.146Z,99.90
2018-06-14T03:29:59.724Z,99.90
2018-06-14T03:32:27.306Z,99.90
2018-06-14T03:34:54.879Z,99.90
2018-06-14T03:37:22.388Z,99.90
2018-06-14T03:39:49.923Z,99.90
2018-06-14T03:42:17.469Z,99.90
2018-06-14T03:44:45.069Z,99.90
2018-06-14T03:47:12.593Z,99.90
2018-06-14T03:49:41.099Z,99.90
2018-06-14T03:52:09.685Z,99.90
2018-06-14T03:54:37.239Z,99.90
2018-06-14T03:57:04.854Z,99.90
2018-06-14T04:02:00.393Z,99.90
2018-06-14T04:04:28.043Z,99.90
2018-06-14T04:06:55.577Z,99.90
2018-06-14T04:09:23.101Z,99.90
2018-06-14T04:11:50.621Z,99.90
2018-06-14T04:14:18.128Z,99.90
2018-06-14T04:16:45.662Z,99.90
2018-06-14T04:19:13.207Z,99.90
2018-06-14T04:21:40.741Z,99.90
2018-06-14T04:24:08.281Z,99.90
2018-06-14T04:26:35.857Z,99.90
2018-06-14T04:29:03.348Z,99.90
2018-06-14T04:31:30.879Z,99.90
2018-06-14T04:33:58.417Z,99.90
2018-06-14T04:36:25.937Z,99.90
2018-06-14T04:38:53.434Z,99.90
2018-06-14T04:41:20.985Z,99.90
2018-06-14T04:43:48.489Z,99.90
2018-06-14T04:46:16.019Z,99.90
2018-06-14T04:48:43.799Z,99.90
2018-06-14T04:51:11.655Z,99.90
2018-06-14T04:53:40.491Z,99.90
2018-06-14T04:56:09.985Z,99.90
2018-06-14T04:58:37.677Z,99.90
2018-06-14T05:01:05.889Z,99.90
2018-06-14T05:03:33.451Z,99.90
2018-06-14T05:06:01.307Z,99.90
2018-06-14T05:08:28.870Z,99.90
2018-06-14T05:10:56.421Z,99.90
2018-06-14T05:13:24.177Z,99.90
2018-06-14T05:15:52.604Z,99.90
2018-06-14T05:18:21.451Z,99.90
2018-06-14T05:20:49.861Z,99.90
2018-06-14T05:23:18.191Z,99.90
2018-06-14T05:25:46.032Z,99.90
2018-06-14T05:28:13.615Z,99.90
2018-06-14T05:30:41.479Z,99.90
2018-06-14T05:33:09.067Z,99.90
2018-06-14T05:35:36.751Z,99.90
2018-06-14T05:38:04.414Z,99.90
2018-06-14T05:40:32.065Z,99.90
2018-06-14T05:42:59.622Z,99.90
2018-06-14T05:45:27.183Z,99.90
2018-06-14T05:47:54.727Z,99.90
2018-06-14T05:50:22.585Z,99.90
2018-06-14T05:52:50.200Z,99.90
2018-06-14T05:55:17.756Z,99.90
2018-06-14T05:57:45.292Z,99.90
2018-06-14T06:00:15.535Z,99.90
2018-06-14T06:02:43.580Z,99.90
2018-06-14T06:05:11.099Z,99.90
2018-06-14T06:07:38.808Z,99.90
2018-06-14T06:10:07.081Z,99.70
2018-06-14T06:12:34.608Z,98.90
2018-06-14T06:15:02.130Z,98.20
2018-06-14T06:17:29.710Z,98.20
2018-06-14T06:19:57.310Z,98.20
2018-06-14T06:22:25.367Z,97.70
2018-06-14T06:24:52.904Z,96.80
2018-06-14T06:27:20.418Z,96.70
2018-06-14T06:29:47.946Z,97.10
2018-06-14T06:32:15.584Z,96.60
2018-06-14T06:34:43.098Z,95.90
2018-06-14T06:37:10.618Z,95.60
2018-06-14T06:39:38.140Z,95.70
2018-06-14T06:42:05.782Z,95.70
2018-06-14T06:44:33.324Z,95.30
2018-06-14T06:47:00.885Z,95.20
2018-06-14T06:49:28.434Z,94.70
2018-06-14T06:51:55.987Z,94.70
2018-06-14T06:54:23.476Z,94.70
2018-06-14T06:56:51.008Z,94.90
2018-06-14T06:59:18.513Z,94.70
2018-06-14T07:01:46.066Z,95.90
2018-06-14T07:04:13.596Z,96.00
2018-06-14T07:06:41.132Z,95.80
2018-06-14T07:09:09.978Z,95.10
2018-06-14T07:11:37.546Z,94.50
2018-06-14T07:14:05.366Z,92.90
2018-06-14T07:16:32.929Z,91.90
2018-06-14T07:19:00.489Z,91.50
2018-06-14T07:21:28.106Z,90.90
2018-06-14T07:23:55.683Z,89.80
2018-06-14T07:26:23.259Z,90.20
2018-06-14T07:28:50.809Z,90.40
2018-06-14T07:31:18.331Z,90.90
2018-06-14T07:33:45.870Z,91.10
2018-06-14T07:36:13.385Z,91.40
2018-06-14T07:38:40.913Z,91.10
2018-06-14T07:41:08.442Z,91.10
2018-06-14T07:43:35.955Z,91.10
2018-06-14T07:46:03.588Z,90.30
2018-06-14T07:48:31.183Z,90.20
2018-06-14T07:50:58.730Z,90.60
2018-06-14T07:53:26.277Z,90.90
2018-06-14T07:55:53.844Z,90.80
2018-06-14T07:58:21.409Z,90.80
2018-06-14T08:00:48.968Z,90.70
2018-06-14T08:03:16.565Z,90.50
2018-06-14T08:05:44.141Z,90.20
2018-06-14T08:08:11.734Z,90.00
2018-06-14T08:10:39.282Z,87.20
2018-06-14T08:13:06.784Z,85.60
2018-06-14T08:15:34.316Z,85.20
2018-06-14T08:18:01.872Z,85.00
2018-06-14T08:20:29.721Z,85.30
2018-06-14T08:22:57.405Z,84.60
2018-06-14T08:25:25.005Z,85.90
2018-06-14T08:27:52.636Z,86.30
2018-06-14T08:30:20.166Z,84.60
2018-06-14T08:32:47.712Z,84.60
2018-06-14T08:35:15.305Z,83.10
2018-06-14T08:37:42.844Z,83.50
2018-06-14T08:40:10.374Z,83.40
2018-06-14T08:42:37.918Z,82.90
2018-06-14T08:45:05.448Z,82.70
2018-06-14T08:47:32.996Z,82.60
2018-06-14T08:50:00.513Z,81.70
2018-06-14T08:52:28.086Z,80.80
2018-06-14T08:54:55.644Z,79.00
2018-06-14T08:57:23.167Z,77.00
2018-06-14T08:59:50.709Z,77.60
2018-06-14T09:02:18.278Z,79.00
2018-06-14T09:04:45.849Z,78.70
2018-06-14T09:07:13.402Z,79.00
2018-06-14T09:09:41.025Z,79.70
2018-06-14T09:12:08.617Z,78.80
2018-06-14T09:14:36.183Z,78.20
2018-06-14T09:17:03.739Z,77.60
2018-06-14T09:19:31.305Z,77.80
2018-06-14T09:21:58.893Z,78.00
2018-06-14T09:24:26.539Z,76.90
2018-06-14T09:26:54.102Z,77.20
2018-06-14T09:29:21.684Z,78.10
2018-06-14T09:31:49.221Z,78.30
2018-06-14T09:34:16.742Z,78.30
2018-06-14T09:36:44.301Z,78.30
2018-06-14T09:39:11.865Z,77.80
2018-06-14T09:41:40.051Z,77.70
2018-06-14T09:44:07.650Z,76.80
2018-06-14T09:46:35.260Z,76.10
2018-06-14T09:49:09.326Z,73.50
2018-06-14T09:51:36.923Z,73.50
2018-06-14T09:54:04.724Z,73.40
2018-06-14T09:56:32.258Z,73.40
2018-06-14T09:58:59.788Z,73.90
2018-06-14T10:01:27.432Z,72.40
2018-06-14T10:03:55.019Z,73.00
2018-06-14T10:06:22.619Z,72.30
2018-06-14T10:08:50.152Z,70.60
2018-06-14T10:11:17.683Z,70.00
2018-06-14T10:13:45.258Z,70.10
2018-06-14T10:16:12.813Z,70.20
2018-06-14T10:18:40.377Z,69.20
2018-06-14T10:21:07.930Z,67.40
2018-06-14T10:23:35.738Z,67.00
2018-06-14T10:26:03.312Z,66.30
2018-06-14T10:28:30.888Z,63.70
2018-06-14T10:30:58.770Z,64.50
2018-06-14T10:33:26.334Z,65.40
2018-06-14T10:35:54.110Z,64.70
2018-06-14T10:38:21.645Z,64.00
2018-06-14T10:40:49.178Z,64.90
2018-06-14T10:43:16.764Z,64.10
2018-06-14T10:45:44.340Z,65.10
2018-06-14T10:48:11.926Z,64.20
2018-06-14T10:50:39.474Z,61.50
2018-06-14T10:53:07.054Z,60.30
2018-06-14T10:55:34.632Z,60.20
2018-06-14T10:58:02.206Z,59.20
2018-06-14T11:00:29.818Z,59.30
2018-06-14T11:02:57.322Z,60.60
2018-06-14T11:05:24.857Z,59.60
2018-06-14T11:07:52.420Z,59.90
2018-06-14T11:10:20.034Z,60.80
2018-06-14T11:12:47.826Z,61.10
2018-06-14T11:15:15.567Z,60.60
2018-06-14T11:17:43.179Z,60.70
2018-06-14T11:20:10.745Z,60.50
2018-06-14T11:22:38.322Z,60.20
2018-06-14T11:25:05.962Z,59.30
2018-06-14T11:27:33.503Z,57.80
2018-06-14T11:30:01.079Z,56.30
2018-06-14T11:32:28.637Z,55.40
2018-06-14T11:34:56.178Z,57.20
2018-06-14T11:37:24.442Z,57.50
2018-06-14T11:39:51.994Z,58.10
2018-06-14T11:42:19.494Z,57.60
2018-06-14T11:44:47.063Z,58.20
2018-06-14T11:47:14.642Z,58.90
2018-06-14T11:49:42.234Z,59.60
2018-06-14T11:52:09.783Z,59.50
2018-06-14T11:54:37.380Z,58.90
2018-06-14T11:57:04.985Z,59.50
2018-06-14T11:59:32.533Z,60.00
2018-06-14T12:02:00.100Z,60.10
2018-06-14T12:04:27.664Z,60.00
2018-06-14T12:06:55.227Z,60.80
2018-06-14T12:09:22.836Z,61.60
2018-06-14T12:11:50.398Z,60.80
2018-06-14T12:14:17.947Z,60.10
2018-06-14T12:16:45.500Z,61.20
2018-06-14T12:19:13.069Z,61.50
2018-06-14T12:21:40.600Z,60.00
2018-06-14T12:24:08.194Z,60.70
2018-06-14T12:26:35.767Z,59.90
2018-06-14T12:29:03.393Z,60.90
2018-06-14T12:31:31.043Z,60.70
2018-06-14T12:33:58.635Z,59.50
2018-06-14T12:36:26.199Z,60.50
2018-06-14T12:38:53.739Z,61.30
2018-06-14T12:41:21.339Z,60.40
2018-06-14T12:43:48.852Z,58.80
2018-06-14T12:46:16.412Z,58.50
2018-06-14T12:48:43.996Z,59.10
2018-06-14T12:51:11.563Z,58.30
2018-06-14T12:53:39.115Z,58.20
2018-06-14T12:56:06.719Z,57.40
2018-06-14T12:58:34.318Z,54.70
2018-06-14T13:01:01.985Z,52.50
2018-06-14T13:03:29.738Z,52.50
2018-06-14T13:05:57.269Z,53.20
2018-06-14T13:08:24.860Z,53.10
2018-06-14T13:10:52.478Z,53.30
2018-06-14T13:13:20.032Z,53.30
2018-06-14T13:15:47.623Z,53.80
2018-06-14T13:18:15.196Z,54.20
2018-06-14T13:20:42.817Z,53.90
2018-06-14T13:23:10.420Z,53.80
2018-06-14T13:25:38.044Z,53.30
2018-06-14T13:28:05.642Z,54.00
2018-06-14T13:30:33.248Z,52.30
2018-06-14T13:33:00.843Z,51.90
2018-06-14T13:35:28.406Z,49.00
2018-06-14T13:37:55.978Z,48.80
2018-06-14T13:40:23.593Z,48.50
2018-06-14T13:42:51.149Z,48.00
2018-06-14T13:45:18.675Z,47.10
2018-06-14T13:47:46.253Z,46.30
2018-06-14T13:50:13.904Z,46.30
2018-06-14T13:52:41.492Z,46.70
2018-06-14T13:55:09.209Z,47.70
2018-06-14T13:57:36.757Z,48.20
2018-06-14T14:00:04.397Z,49.20
2018-06-14T14:02:31.939Z,50.10
2018-06-14T14:04:59.512Z,50.80
2018-06-14T14:07:28.089Z,51.80
2018-06-14T14:09:56.280Z,52.30
2018-06-14T14:12:24.320Z,50.70
2018-06-14T14:14:51.846Z,50.80
2018-06-14T14:17:19.423Z,51.20
2018-06-14T14:19:47.026Z,52.10
2018-06-14T14:22:14.606Z,52.10
2018-06-14T14:24:42.195Z,51.90
2018-06-14T14:27:09.777Z,51.30
2018-06-14T14:29:37.377Z,47.50
2018-06-14T14:32:04.959Z,47.10
2018-06-14T14:34:32.586Z,46.40
2018-06-14T14:37:00.245Z,46.10
2018-06-14T14:39:27.797Z,47.00
2018-06-14T14:41:55.372Z,47.70
2018-06-14T14:44:22.933Z,46.90
2018-06-14T14:46:50.497Z,47.40
2018-06-14T14:49:18.042Z,48.50
2018-06-14T14:51:45.595Z,48.60
2018-06-14T14:54:13.206Z,48.40
2018-06-14T14:56:40.751Z,47.50
2018-06-14T14:59:08.329Z,47.00
2018-06-14T15:01:35.852Z,46.90
2018-06-14T15:04:03.394Z,47.10
2018-06-14T15:06:30.964Z,48.00
2018-06-14T15:08:58.576Z,48.00
2018-06-14T15:11:26.137Z,47.40
2018-06-14T15:13:53.690Z,47.80
2018-06-14T15:16:21.251Z,48.70
2018-06-14T15:18:48.790Z,48.70
2018-06-14T15:21:16.406Z,48.20
2018-06-14T15:23:43.957Z,48.60
2018-06-14T15:26:11.506Z,49.60
2018-06-14T15:28:39.066Z,50.60
2018-06-14T15:31:06.646Z,50.40
2018-06-14T15:33:34.307Z,51.30
2018-06-14T15:36:01.918Z,52.00
2018-06-14T15:38:29.471Z,52.00
2018-06-14T15:40:57.040Z,51.70
2018-06-14T15:43:24.706Z,51.70
2018-06-14T15:45:52.280Z,53.20
2018-06-14T15:48:19.843Z,51.70
2018-06-14T15:50:47.430Z,50.60
2018-06-14T15:53:15.024Z,48.90
2018-06-14T15:56:07.029Z,47.80
2018-06-14T15:58:34.635Z,46.40
2018-06-14T16:01:02.206Z,44.90
2018-06-14T16:03:29.830Z,44.10
2018-06-14T16:05:57.414Z,42.40
2018-06-14T16:08:25.034Z,43.10
2018-06-14T16:10:53.045Z,43.30
2018-06-14T16:13:20.923Z,41.90
2018-06-14T16:15:48.562Z,42.00
2018-06-14T16:18:16.393Z,43.50
2018-06-14T16:20:44.140Z,42.70
2018-06-14T16:23:11.705Z,43.00
2018-06-14T16:25:39.279Z,43.30
2018-06-14T16:28:06.866Z,43.20
2018-06-14T16:30:34.668Z,42.90
2018-06-14T16:33:02.206Z,43.10
2018-06-14T16:35:29.787Z,43.10
2018-06-14T16:37:57.333Z,42.80
2018-06-14T16:40:24.921Z,41.90
2018-06-14T16:42:52.471Z,41.80
2018-06-14T16:45:20.024Z,42.20
2018-06-14T16:47:47.535Z,42.80
2018-06-14T16:50:15.122Z,43.20
2018-06-14T16:52:42.744Z,43.00
2018-06-14T16:55:10.309Z,43.90
2018-06-14T16:57:37.839Z,43.30
2018-06-14T17:00:05.911Z,43.30
2018-06-14T17:02:33.486Z,44.30
2018-06-14T17:05:01.291Z,44.50
2018-06-14T17:07:28.834Z,44.90
2018-06-14T17:09:56.388Z,44.80
2018-06-14T17:12:24.024Z,45.20
2018-06-14T17:14:51.563Z,45.80
2018-06-14T17:17:19.134Z,46.80
2018-06-14T17:19:46.637Z,48.40
2018-06-14T17:22:14.327Z,49.70
2018-06-14T17:24:41.973Z,50.90
2018-06-14T17:27:09.536Z,51.60
2018-06-14T17:29:37.315Z,53.00
2018-06-14T17:32:04.946Z,54.40
2018-06-14T17:34:32.518Z,55.70
2018-06-14T17:37:00.118Z,56.70
2018-06-14T17:39:28.248Z,57.60
2018-06-14T17:41:55.820Z,58.30
2018-06-14T17:44:23.410Z,59.50
2018-06-14T17:46:50.986Z,60.00
2018-06-14T17:49:18.707Z,60.60
2018-06-14T17:51:46.293Z,60.80
2018-06-14T17:54:13.942Z,60.00
2018-06-14T17:56:41.554Z,59.90
2018-06-14T17:59:09.224Z,60.60
2018-06-14T18:01:36.954Z,61.50
2018-06-14T18:04:04.531Z,62.80
2018-06-14T18:06:32.303Z,63.50
2018-06-14T18:08:59.860Z,63.80
2018-06-14T18:11:27.546Z,64.10
2018-06-14T18:13:55.136Z,64.90
2018-06-14T18:16:22.778Z,65.10
2018-06-14T18:18:50.471Z,65.30
2018-06-14T18:21:18.139Z,65.90
2018-06-14T18:23:45.814Z,66.30
2018-06-14T18:26:13.491Z,66.60
2018-06-14T18:28:41.177Z,66.90
2018-06-14T18:31:08.887Z,67.40
2018-06-14T18:33:36.523Z,67.10
2018-06-14T18:36:04.471Z,67.80
2018-06-14T18:38:32.147Z,68.30
2018-06-14T18:41:00.846Z,68.70
2018-06-14T18:43:28.576Z,69.10
2018-06-14T18:45:56.594Z,69.80
2018-06-14T18:48:24.250Z,70.00
2018-06-14T18:50:51.881Z,70.10
2018-06-14T18:53:19.592Z,70.10
2018-06-14T18:55:47.228Z,70.40
2018-06-14T18:58:14.907Z,70.50
2018-06-14T19:00:43.506Z,70.90
2018-06-14T19:03:11.309Z,71.70
2018-06-14T19:05:38.990Z,72.50
2018-06-14T19:08:06.653Z,73.30
2018-06-14T19:10:34.344Z,73.90
2018-06-14T19:13:02.074Z,74.70
2018-06-14T19:15:29.778Z,76.00
2018-06-14T19:17:57.472Z,77.20
2018-06-14T19:20:25.119Z,78.10
2018-06-14T19:22:52.847Z,79.20
2018-06-14T19:25:21.213Z,80.40
2018-06-14T19:27:48.899Z,81.60
2018-06-14T19:30:16.597Z,82.70
2018-06-14T19:32:44.273Z,83.50
2018-06-14T19:35:11.957Z,84.60
2018-06-14T19:37:39.596Z,85.70
2018-06-14T19:40:08.225Z,86.50
2018-06-14T19:42:36.522Z,87.20
2018-06-14T19:45:04.199Z,88.00
2018-06-14T19:47:32.474Z,88.70
2018-06-14T19:50:00.127Z,89.50
2018-06-14T19:52:27.829Z,90.00
2018-06-14T19:54:56.160Z,90.20
2018-06-14T19:57:23.828Z,90.70
2018-06-14T19:59:51.510Z,90.80
2018-06-14T20:02:19.132Z,91.00
2018-06-14T20:04:46.937Z,91.30
2018-06-14T20:07:14.646Z,91.60
2018-06-14T20:09:42.357Z,91.80
2018-06-14T20:12:10.028Z,91.90
2018-06-14T20:14:37.826Z,92.00
2018-06-14T20:17:05.526Z,92.10
2018-06-14T20:19:33.173Z,92.00
2018-06-14T20:22:00.850Z,92.00
2018-06-14T20:24:28.577Z,92.00
2018-06-14T20:26:56.214Z,92.20
2018-06-14T20:29:23.911Z,92.50
2018-06-14T20:31:51.541Z,92.80
2018-06-14T20:34:19.195Z,93.10
2018-06-14T20:36:46.888Z,93.30
2018-06-14T20:39:14.547Z,93.60
2018-06-14T20:41:42.191Z,93.70
2018-06-14T20:44:09.879Z,93.60
2018-06-14T20:46:37.519Z,93.60
2018-06-14T20:49:05.403Z,93.70
2018-06-14T20:51:33.089Z,93.60
2018-06-14T20:54:00.816Z,93.50
2018-06-14T20:56:28.531Z,93.50
2018-06-14T20:58:56.149Z,93.30
2018-06-14T21:01:23.809Z,93.50
2018-06-14T21:03:51.463Z,93.50
2018-06-14T21:06:19.053Z,93.60
2018-06-14T21:08:46.686Z,93.60
2018-06-14T21:11:14.300Z,93.70
2018-06-14T21:13:41.888Z,93.90
2018-06-14T21:16:09.452Z,94.20
2018-06-14T21:18:36.987Z,94.40
2018-06-14T21:21:04.616Z,94.50
2018-06-14T21:23:32.214Z,94.50
2018-06-14T21:25:59.801Z,94.50
2018-06-14T21:28:27.353Z,94.90
2018-06-14T21:30:54.951Z,95.30
2018-06-14T21:33:22.527Z,95.50
2018-06-14T21:35:50.079Z,95.60
2018-06-14T21:38:17.663Z,95.70
2018-06-14T21:43:12.675Z,95.60
2018-06-14T21:45:40.257Z,96.00
2018-06-14T21:48:07.811Z,96.20
2018-06-14T21:50:35.389Z,96.40
2018-06-14T21:53:02.942Z,96.50
2018-06-14T21:55:30.519Z,96.40
2018-06-14T21:57:58.092Z,96.40
2018-06-14T22:00:25.655Z,96.40
2018-06-14T22:02:58.960Z,96.30
2018-06-14T22:05:26.895Z,96.30
2018-06-14T22:10:21.958Z,96.50
2018-06-14T22:12:49.500Z,96.60
2018-06-14T22:15:17.080Z,96.40
2018-06-14T22:17:44.661Z,96.60
2018-06-14T22:20:12.204Z,96.60
2018-06-14T22:22:39.750Z,96.70
2018-06-14T22:25:07.374Z,96.80
2018-06-14T22:30:02.764Z,96.90
2018-06-14T22:32:30.288Z,97.00
2018-06-14T22:35:24.982Z,97.10
2018-06-14T22:37:52.516Z,97.10
2018-06-14T22:40:20.053Z,97.20
2018-06-14T22:42:47.620Z,97.20
2018-06-14T22:45:15.179Z,97.20
2018-06-14T22:47:42.775Z,97.30
2018-06-14T22:50:10.349Z,97.30
2018-06-14T22:53:12.554Z,97.30
2018-06-14T22:55:40.107Z,97.30
2018-06-14T22:58:07.638Z,97.30
2018-06-14T23:00:47.864Z,97.30
2018-06-14T23:03:15.429Z,97.30
2018-06-14T23:05:43.003Z,97.30
2018-06-14T23:08:10.544Z,97.30
2018-06-14T23:10:49.469Z,97.30
2018-06-14T23:13:18.060Z,97.50
2018-06-14T23:15:46.467Z,97.60
2018-06-14T23:18:13.993Z,97.70
2018-06-14T23:20:41.559Z,97.80
2018-06-14T23:23:09.470Z,97.80
2018-06-14T23:25:37.595Z,97.80
2018-06-14T23:28:05.223Z,97.80
2018-06-14T23:30:32.765Z,97.80
2018-06-14T23:33:00.351Z,97.80
2018-06-14T23:35:27.922Z,97.80
2018-06-14T23:37:55.449Z,97.80
2018-06-14T23:40:23.124Z,97.80
2018-06-14T23:42:50.663Z,97.70
2018-06-14T23:45:18.177Z,97.70
2018-06-14T23:47:45.742Z,97.60
2018-06-14T23:50:13.268Z,97.50
2018-06-14T23:52:40.824Z,97.60
2018-06-14T23:55:08.345Z,97.70
